createdAt,value
2022-08-05T00:00:00.459Z,44.47
2022-08-05T00:00:16.672Z,44.49
2022-08-05T00:00:31.190Z,44.49
2022-08-05T00:00:50.292Z,44.49
2022-08-05T00:01:20.095Z,44.49
2022-08-05T00:01:28.468Z,44.48
2022-08-05T00:01:48.479Z,44.49
2022-08-05T00:01:52.453Z,44.48
2022-08-05T00:02:11.450Z,44.51
2022-08-05T00:02:24.412Z,44.48
2022-08-05T00:02:39.816Z,44.49
2022-08-05T00:02:56.001Z,44.51
2022-08-05T00:03:15.471Z,44.51
2022-08-05T00:03:27.263Z,44.48
2022-08-05T00:03:44.367Z,44.48
2022-08-05T00:04:00.088Z,44.51
2022-08-05T00:04:16.466Z,44.49
2022-08-05T00:04:31.522Z,44.49
2022-08-05T00:04:55.377Z,44.51
2022-08-05T00:05:05.865Z,44.49
2022-08-05T00:06:02.867Z,44.51
2022-08-05T00:06:04.637Z,44.48
2022-08-05T00:06:05.671Z,44.51
2022-08-05T00:06:29.195Z,44.51
2022-08-05T00:06:32.219Z,44.52
2022-08-05T00:06:40.023Z,44.51
2022-08-05T00:06:55.378Z,44.51
2022-08-05T00:07:26.920Z,44.52
2022-08-05T00:07:59.815Z,44.51
2022-08-05T00:08:00.027Z,44.51
2022-08-05T00:08:01.429Z,44.52
2022-08-05T00:08:32.432Z,44.52
2022-08-05T00:08:35.589Z,44.51
2022-08-05T00:08:47.892Z,44.52
2022-08-05T00:09:05.349Z,44.52
2022-08-05T00:09:19.958Z,44.51
2022-08-05T00:09:36.376Z,44.52
2022-08-05T00:09:51.978Z,44.51
2022-08-05T00:10:08.202Z,44.49
2022-08-05T00:10:27.174Z,44.53
2022-08-05T00:10:39.024Z,44.52
2022-08-05T00:10:55.739Z,44.52
2022-08-05T00:11:20.814Z,44.52
2022-08-05T00:11:34.873Z,44.51
2022-08-05T00:11:49.106Z,44.53
2022-08-05T00:12:00.719Z,44.52
2022-08-05T00:12:15.530Z,44.52
2022-08-05T00:12:32.958Z,44.51
2022-08-05T00:12:56.679Z,44.49
2022-08-05T00:13:04.454Z,44.52
2022-08-05T00:13:19.763Z,44.52
2022-08-05T00:13:38.841Z,44.52
2022-08-05T00:13:52.898Z,44.53
2022-08-05T00:14:12.579Z,44.52
2022-08-05T00:14:27.632Z,44.52
2022-08-05T00:14:40.116Z,44.52
2022-08-05T00:14:56.361Z,44.52
2022-08-05T00:15:54.007Z,44.52
2022-08-05T00:15:56.021Z,44.54
2022-08-05T00:15:56.384Z,44.53
2022-08-05T00:15:59.011Z,44.52
2022-08-05T00:16:16.484Z,44.52
2022-08-05T00:16:35.294Z,44.54
2022-08-05T00:16:52.612Z,44.53
2022-08-05T00:17:03.893Z,44.52
2022-08-05T00:17:20.301Z,44.53
2022-08-05T00:17:36.159Z,44.54
2022-08-05T00:17:52.532Z,44.53
2022-08-05T00:18:09.444Z,44.53
2022-08-05T00:18:24.941Z,44.55
2022-08-05T00:18:42.105Z,44.53
2022-08-05T00:18:55.040Z,44.53
2022-08-05T00:19:12.343Z,44.55
2022-08-05T00:19:33.673Z,44.53
2022-08-05T00:19:45.803Z,44.53
2022-08-05T00:20:02.401Z,44.55
2022-08-05T00:20:15.818Z,44.53
2022-08-05T00:20:33.383Z,44.53
2022-08-05T00:20:48.834Z,44.53
2022-08-05T00:21:04.097Z,44.54
2022-08-05T00:21:20.160Z,44.53
2022-08-05T00:21:37.037Z,44.53
2022-08-05T00:21:50.986Z,44.53
2022-08-05T00:22:08.106Z,44.54
2022-08-05T00:22:23.153Z,44.55
2022-08-05T00:22:39.964Z,44.55
2022-08-05T00:22:59.572Z,44.53
2022-08-05T00:23:14.731Z,44.55
2022-08-05T00:23:44.199Z,44.55
2022-08-05T00:23:45.938Z,44.55
2022-08-05T00:24:10.177Z,44.54
2022-08-05T00:24:18.944Z,44.55
2022-08-05T00:24:32.103Z,44.55
2022-08-05T00:24:48.278Z,44.57
2022-08-05T00:25:03.778Z,44.55
2022-08-05T00:25:19.633Z,44.57
2022-08-05T00:25:45.462Z,44.55
2022-08-05T00:25:51.614Z,44.56
2022-08-05T00:26:08.218Z,44.55
2022-08-05T00:26:24.066Z,44.55
2022-08-05T00:26:50.832Z,44.55
2022-08-05T00:26:56.217Z,44.55
2022-08-05T00:27:14.154Z,44.55
2022-08-05T00:27:36.138Z,44.55
2022-08-05T00:27:45.173Z,44.56
2022-08-05T00:27:59.778Z,44.56
2022-08-05T00:28:16.062Z,44.55
2022-08-05T00:28:33.493Z,44.55
2022-08-05T00:28:47.690Z,44.55
2022-08-05T00:29:05.360Z,44.55
2022-08-05T00:29:22.751Z,44.55
2022-08-05T00:29:38.096Z,44.57
2022-08-05T00:29:51.650Z,44.56
2022-08-05T00:30:11.427Z,44.56
2022-08-05T00:30:29.260Z,44.57
2022-08-05T00:30:39.122Z,44.57
2022-08-05T00:30:56.217Z,44.55
2022-08-05T00:31:11.612Z,44.56
2022-08-05T00:31:53.191Z,44.57
2022-08-05T00:32:10.603Z,44.57
2022-08-05T00:32:13.217Z,44.56
2022-08-05T00:32:15.992Z,44.58
2022-08-05T00:32:30.822Z,44.58
2022-08-05T00:32:47.646Z,44.57
2022-08-05T00:33:05.066Z,44.55
2022-08-05T00:34:53.819Z,44.57
2022-08-05T00:34:55.264Z,44.57
2022-08-05T00:34:55.320Z,44.55
2022-08-05T00:34:55.493Z,44.56
2022-08-05T00:34:56.128Z,44.57
2022-08-05T00:34:56.864Z,44.57
2022-08-05T00:35:06.633Z,44.57
2022-08-05T00:35:14.881Z,44.58
2022-08-05T00:35:33.209Z,44.56
2022-08-05T00:36:14.778Z,44.58
2022-08-05T00:36:15.988Z,44.58
2022-08-05T00:37:10.574Z,44.58
2022-08-05T00:37:11.567Z,44.58
2022-08-05T00:37:11.755Z,44.56
2022-08-05T00:37:12.782Z,44.59
2022-08-05T00:37:20.558Z,44.58
2022-08-05T00:37:52.540Z,44.57
2022-08-05T00:37:53.902Z,44.57
2022-08-05T00:38:09.474Z,44.59
2022-08-05T00:38:28.917Z,44.59
2022-08-05T00:38:40.106Z,44.58
2022-08-05T00:38:55.496Z,44.57
2022-08-05T00:39:13.927Z,44.58
2022-08-05T00:39:28.154Z,44.58
2022-08-05T00:39:57.815Z,44.6
2022-08-05T00:40:00.135Z,44.59
2022-08-05T00:40:17.953Z,44.59
2022-08-05T00:40:31.772Z,44.57
2022-08-05T00:40:46.901Z,44.58
2022-08-05T00:41:03.637Z,44.58
2022-08-05T00:41:19.692Z,44.59
2022-08-05T00:41:52.074Z,44.58
2022-08-05T00:41:55.473Z,44.57
2022-08-05T00:42:08.365Z,44.58
2022-08-05T00:42:32.213Z,44.6
2022-08-05T00:42:40.476Z,44.59
2022-08-05T00:42:55.899Z,44.6
2022-08-05T00:43:11.561Z,44.59
2022-08-05T00:43:28.253Z,44.59
2022-08-05T00:43:49.695Z,44.59
2022-08-05T00:44:00.398Z,44.6
2022-08-05T00:44:15.078Z,44.58
2022-08-05T00:44:32.053Z,44.61
2022-08-05T00:44:48.088Z,44.58
2022-08-05T00:45:04.135Z,44.59
2022-08-05T00:45:28.392Z,44.6
2022-08-05T00:45:43.821Z,44.58
2022-08-05T00:45:51.728Z,44.57
2022-08-05T00:46:07.288Z,44.58
2022-08-05T00:46:42.786Z,44.59
2022-08-05T00:46:43.472Z,44.58
2022-08-05T00:47:01.891Z,44.59
2022-08-05T00:47:12.093Z,44.58
2022-08-05T00:47:53.337Z,44.59
2022-08-05T00:47:56.747Z,44.59
2022-08-05T00:48:05.822Z,44.59
2022-08-05T00:48:15.799Z,44.59
2022-08-05T00:48:32.289Z,44.59
2022-08-05T00:48:51.322Z,44.59
2022-08-05T00:49:03.451Z,44.6
2022-08-05T00:49:19.937Z,44.6
2022-08-05T00:49:44.717Z,44.59
2022-08-05T00:49:53.741Z,44.59
2022-08-05T00:50:07.475Z,44.59
2022-08-05T00:50:25.339Z,44.6
2022-08-05T00:50:41.420Z,44.6
2022-08-05T00:50:56.721Z,44.62
2022-08-05T00:51:50.306Z,44.59
2022-08-05T00:51:50.443Z,44.59
2022-08-05T00:51:51.786Z,44.6
2022-08-05T00:51:58.967Z,44.59
2022-08-05T00:52:15.821Z,44.6
2022-08-05T00:52:31.825Z,44.6
2022-08-05T00:52:47.788Z,44.62
2022-08-05T00:53:03.765Z,44.62
2022-08-05T00:53:44.873Z,44.61
2022-08-05T00:54:00.032Z,44.6
2022-08-05T00:54:02.319Z,44.6
2022-08-05T00:54:07.840Z,44.6
2022-08-05T00:54:24.239Z,44.62
2022-08-05T00:54:39.551Z,44.62
2022-08-05T00:54:56.136Z,44.61
2022-08-05T00:55:11.622Z,44.6
2022-08-05T00:55:33.975Z,44.6
2022-08-05T00:55:45.472Z,44.6
2022-08-05T00:55:59.503Z,44.6
2022-08-05T00:56:17.365Z,44.59
2022-08-05T00:56:31.957Z,44.6
2022-08-05T00:56:51.779Z,44.61
2022-08-05T00:57:04.264Z,44.63
2022-08-05T00:57:21.265Z,44.62
2022-08-05T00:57:55.394Z,44.6
2022-08-05T00:57:58.399Z,44.61
2022-08-05T00:58:08.216Z,44.62
2022-08-05T00:58:27.520Z,44.62
2022-08-05T00:58:42.501Z,44.6
2022-08-05T00:58:55.915Z,44.63
2022-08-05T00:59:12.741Z,44.62
2022-08-05T00:59:34.595Z,44.6
2022-08-05T00:59:44.574Z,44.63
2022-08-05T01:00:01.001Z,44.62
2022-08-05T01:00:17.037Z,44.62
2022-08-05T01:00:32.294Z,44.63
2022-08-05T01:00:47.890Z,44.62
2022-08-05T01:01:08.618Z,44.62
2022-08-05T01:01:42.247Z,44.62
2022-08-05T01:01:42.637Z,44.63
2022-08-05T01:01:52.100Z,44.63
2022-08-05T01:02:06.949Z,44.62
2022-08-05T01:02:24.405Z,44.64
2022-08-05T01:02:39.538Z,44.62
2022-08-05T01:02:56.146Z,44.62
2022-08-05T01:03:23.011Z,44.63
2022-08-05T01:03:30.750Z,44.6
2022-08-05T01:03:45.776Z,44.6
2022-08-05T01:04:01.418Z,44.63
2022-08-05T01:04:16.119Z,44.63
2022-08-05T01:04:32.731Z,44.63
2022-08-05T01:04:50.320Z,44.63
2022-08-05T01:05:05.132Z,44.63
2022-08-05T01:05:20.381Z,44.64
2022-08-05T01:05:34.990Z,44.63
2022-08-05T01:05:51.643Z,44.63
2022-08-05T01:06:11.188Z,44.63
2022-08-05T01:06:26.595Z,44.64
2022-08-05T01:06:39.746Z,44.63
2022-08-05T01:06:56.199Z,44.63
2022-08-05T01:07:13.815Z,44.63
2022-08-05T01:07:31.900Z,44.63
2022-08-05T01:08:30.290Z,44.65
2022-08-05T01:08:30.818Z,44.64
2022-08-05T01:08:41.409Z,44.65
2022-08-05T01:08:43.117Z,44.63
2022-08-05T01:08:48.387Z,44.65
2022-08-05T01:09:03.257Z,44.64
2022-08-05T01:09:19.941Z,44.64
2022-08-05T01:09:35.757Z,44.63
2022-08-05T01:09:55.681Z,44.65
2022-08-05T01:10:09.467Z,44.64
2022-08-05T01:10:25.825Z,44.65
2022-08-05T01:10:40.325Z,44.65
2022-08-05T01:10:55.365Z,44.64
2022-08-05T01:11:13.535Z,44.63
2022-08-05T01:11:36.788Z,44.62
2022-08-05T01:11:43.761Z,44.64
2022-08-05T01:12:04.489Z,44.65
2022-08-05T01:12:18.504Z,44.64
2022-08-05T01:12:31.707Z,44.64
2022-08-05T01:12:54.259Z,44.63
2022-08-05T01:13:13.273Z,44.66
2022-08-05T01:13:19.504Z,44.65
2022-08-05T01:13:58.511Z,44.66
2022-08-05T01:13:58.670Z,44.66
2022-08-05T01:14:09.166Z,44.65
2022-08-05T01:14:28.090Z,44.65
2022-08-05T01:14:40.644Z,44.66
2022-08-05T01:14:56.064Z,44.66
2022-08-05T01:15:17.157Z,44.66
2022-08-05T01:15:36.233Z,44.65
2022-08-05T01:15:47.875Z,44.67
2022-08-05T01:16:01.173Z,44.65
2022-08-05T01:16:14.911Z,44.65
2022-08-05T01:16:31.487Z,44.66
2022-08-05T01:16:47.408Z,44.66
2022-08-05T01:17:04.007Z,44.66
2022-08-05T01:17:19.688Z,44.66
2022-08-05T01:17:40.306Z,44.65
2022-08-05T01:17:53.687Z,44.66
2022-08-05T01:18:08.757Z,44.66
2022-08-05T01:18:25.369Z,44.65
2022-08-05T01:18:39.346Z,44.67
2022-08-05T01:18:57.370Z,44.67
2022-08-05T01:19:11.395Z,44.67
2022-08-05T01:19:36.839Z,44.67
2022-08-05T01:20:01.456Z,44.65
2022-08-05T01:20:01.941Z,44.66
2022-08-05T01:20:15.273Z,44.65
2022-08-05T01:20:32.614Z,44.67
2022-08-05T01:20:47.375Z,44.67
2022-08-05T01:21:03.557Z,44.65
2022-08-05T01:21:22.797Z,44.67
2022-08-05T01:21:37.751Z,44.66
2022-08-05T01:21:52.009Z,44.67
2022-08-05T01:22:07.480Z,44.67
2022-08-05T01:22:24.039Z,44.67
2022-08-05T01:22:39.581Z,44.66
2022-08-05T01:22:57.176Z,44.66
2022-08-05T01:23:14.440Z,44.67
2022-08-05T01:23:34.867Z,44.67
2022-08-05T01:23:43.319Z,44.67
2022-08-05T01:23:59.034Z,44.67
2022-08-05T01:24:15.772Z,44.66
2022-08-05T01:24:32.429Z,44.67
2022-08-05T01:24:47.706Z,44.66
2022-08-05T01:25:02.935Z,44.67
2022-08-05T01:25:20.143Z,44.67
2022-08-05T01:25:40.726Z,44.69
2022-08-05T01:25:53.727Z,44.67
2022-08-05T01:26:07.173Z,44.67
2022-08-05T01:26:26.165Z,44.67
2022-08-05T01:26:39.608Z,44.69
2022-08-05T01:26:54.693Z,44.67
2022-08-05T01:27:17.752Z,44.69
2022-08-05T01:27:33.043Z,44.67
2022-08-05T01:27:55.042Z,44.66
2022-08-05T01:27:59.304Z,44.69
2022-08-05T01:28:17.145Z,44.69
2022-08-05T01:28:31.335Z,44.66
2022-08-05T01:28:48.675Z,44.68
2022-08-05T01:29:05.069Z,44.68
2022-08-05T01:29:19.283Z,44.67
2022-08-05T01:29:35.491Z,44.67
2022-08-05T01:29:51.807Z,44.67
2022-08-05T01:30:18.679Z,44.68
2022-08-05T01:30:33.513Z,44.67
2022-08-05T01:30:41.008Z,44.69
2022-08-05T01:30:55.591Z,44.7
2022-08-05T01:31:12.392Z,44.69
2022-08-05T01:31:27.484Z,44.69
2022-08-05T01:31:44.763Z,44.68
2022-08-05T01:31:59.398Z,44.68
2022-08-05T01:32:18.366Z,44.68
2022-08-05T01:32:31.397Z,44.7
2022-08-05T01:32:46.977Z,44.68
2022-08-05T01:33:04.417Z,44.68
2022-08-05T01:33:20.712Z,44.7
2022-08-05T01:33:36.105Z,44.69
2022-08-05T01:33:53.517Z,44.68
2022-08-05T01:34:10.941Z,44.69
2022-08-05T01:34:26.989Z,44.69
2022-08-05T01:34:40.490Z,44.69
2022-08-05T01:34:56.177Z,44.69
2022-08-05T01:35:11.341Z,44.7
2022-08-05T01:35:50.585Z,44.69
2022-08-05T01:35:51.899Z,44.69
2022-08-05T01:35:59.810Z,44.71
2022-08-05T01:36:16.349Z,44.69
2022-08-05T01:36:31.727Z,44.7
2022-08-05T01:36:49.091Z,44.67
2022-08-05T01:37:04.237Z,44.69
2022-08-05T01:37:24.816Z,44.69
2022-08-05T01:37:36.524Z,44.7
2022-08-05T01:37:51.915Z,44.69
2022-08-05T01:38:07.117Z,44.69
2022-08-05T01:38:26.905Z,44.7
2022-08-05T01:38:39.179Z,44.69
2022-08-05T01:38:56.342Z,44.7
2022-08-05T01:39:11.117Z,44.7
2022-08-05T01:39:45.712Z,44.7
2022-08-05T01:39:46.211Z,44.71
2022-08-05T01:39:59.446Z,44.69
2022-08-05T01:40:17.792Z,44.68
2022-08-05T01:40:31.178Z,44.69
2022-08-05T01:40:47.799Z,44.7
2022-08-05T01:41:03.539Z,44.7
2022-08-05T01:41:20.908Z,44.7
2022-08-05T01:41:35.243Z,44.7
2022-08-05T01:41:52.450Z,44.7
2022-08-05T01:42:07.567Z,44.71
2022-08-05T01:42:24.654Z,44.7
2022-08-05T01:42:39.301Z,44.69
2022-08-05T01:42:55.127Z,44.7
2022-08-05T01:43:22.004Z,44.7
2022-08-05T01:43:26.741Z,44.7
2022-08-05T01:43:44.140Z,44.71
2022-08-05T01:43:59.750Z,44.7
2022-08-05T01:44:15.836Z,44.72
2022-08-05T01:44:35.305Z,44.72
2022-08-05T01:44:53.967Z,44.72
2022-08-05T01:45:03.693Z,44.7
2022-08-05T01:45:20.215Z,44.7
2022-08-05T01:45:43.065Z,44.7
2022-08-05T01:45:56.619Z,44.71
2022-08-05T01:46:16.260Z,44.71
2022-08-05T01:46:41.410Z,44.7
2022-08-05T01:46:42.933Z,44.7
2022-08-05T01:46:56.863Z,44.69
2022-08-05T01:47:11.760Z,44.71
2022-08-05T01:47:38.819Z,44.71
2022-08-05T01:47:43.896Z,44.73
2022-08-05T01:47:59.939Z,44.71
2022-08-05T01:48:15.243Z,44.7
2022-08-05T01:48:31.749Z,44.71
2022-08-05T01:48:49.667Z,44.71
2022-08-05T01:49:23.236Z,44.71
2022-08-05T01:49:24.417Z,44.71
2022-08-05T01:49:42.799Z,44.71
2022-08-05T01:50:02.138Z,44.69
2022-08-05T01:50:08.508Z,44.72
2022-08-05T01:50:28.668Z,44.7
2022-08-05T01:50:41.704Z,44.71
2022-08-05T01:50:55.171Z,44.7
2022-08-05T01:51:12.343Z,44.72
2022-08-05T01:51:29.383Z,44.72
2022-08-05T01:51:42.940Z,44.71
2022-08-05T01:52:00.252Z,44.72
2022-08-05T01:52:17.919Z,44.72
2022-08-05T01:52:32.446Z,44.72
2022-08-05T01:52:49.614Z,44.71
2022-08-05T01:53:03.966Z,44.72
2022-08-05T01:53:54.837Z,44.72
2022-08-05T01:53:55.074Z,44.71
2022-08-05T01:53:57.102Z,44.69
2022-08-05T01:54:07.124Z,44.73
2022-08-05T01:54:23.673Z,44.73
2022-08-05T01:54:46.037Z,44.71
2022-08-05T01:54:56.103Z,44.73
2022-08-05T01:55:12.529Z,44.71
2022-08-05T01:55:28.447Z,44.73
2022-08-05T01:55:43.311Z,44.73
2022-08-05T01:56:04.319Z,44.71
2022-08-05T01:58:09.772Z,44.72
2022-08-05T01:58:11.777Z,44.72
2022-08-05T01:58:11.869Z,44.73
2022-08-05T01:58:11.971Z,44.71
2022-08-05T01:58:12.246Z,44.71
2022-08-05T01:58:15.950Z,44.73
2022-08-05T01:58:29.163Z,44.73
2022-08-05T01:58:29.944Z,44.73
2022-08-05T01:58:40.504Z,44.73
2022-08-05T01:58:41.032Z,44.73
2022-08-05T01:58:56.691Z,44.73
2022-08-05T01:59:11.568Z,44.73
2022-08-05T01:59:30.035Z,44.73
2022-08-05T01:59:47.104Z,44.72
2022-08-05T01:59:59.303Z,44.73
2022-08-05T02:00:15.439Z,44.73
2022-08-05T02:00:31.778Z,44.73
2022-08-05T02:00:47.603Z,44.71
2022-08-05T02:01:03.771Z,44.72
2022-08-05T02:01:25.475Z,44.73
2022-08-05T02:01:39.887Z,44.73
2022-08-05T02:01:51.563Z,44.73
2022-08-05T02:02:10.720Z,44.73
2022-08-05T02:02:26.287Z,44.72
2022-08-05T02:02:46.443Z,44.73
2022-08-05T02:02:55.377Z,44.73
2022-08-05T02:03:16.300Z,44.73
2022-08-05T02:03:31.916Z,44.73
2022-08-05T02:03:43.866Z,44.73
2022-08-05T02:03:59.287Z,44.73
2022-08-05T02:04:15.887Z,44.73
2022-08-05T02:04:31.463Z,44.73
2022-08-05T02:04:49.649Z,44.74
2022-08-05T02:05:03.302Z,44.73
2022-08-05T02:05:19.311Z,44.74
2022-08-05T02:05:35.979Z,44.75
2022-08-05T02:05:50.829Z,44.74
2022-08-05T02:06:24.234Z,44.73
2022-08-05T02:06:37.464Z,44.73
2022-08-05T02:06:39.987Z,44.73
2022-08-05T02:06:55.956Z,44.75
2022-08-05T02:07:10.499Z,44.73
2022-08-05T02:07:30.481Z,44.73
2022-08-05T02:07:47.374Z,44.73
2022-08-05T02:08:01.424Z,44.73
2022-08-05T02:08:15.242Z,44.73
2022-08-05T02:08:32.177Z,44.74
2022-08-05T02:08:57.972Z,44.74
2022-08-05T02:09:04.278Z,44.72
2022-08-05T02:09:20.649Z,44.73
2022-08-05T02:09:37.068Z,44.76
2022-08-05T02:09:52.027Z,44.74
2022-08-05T02:10:07.958Z,44.75
2022-08-05T02:10:28.151Z,44.73
2022-08-05T02:10:39.165Z,44.75
2022-08-05T02:10:55.596Z,44.75
2022-08-05T02:11:11.958Z,44.74
2022-08-05T02:11:33.586Z,44.76
2022-08-05T02:11:48.090Z,44.75
2022-08-05T02:11:59.627Z,44.75
2022-08-05T02:12:15.564Z,44.74
2022-08-05T02:12:32.875Z,44.73
2022-08-05T02:12:51.031Z,44.76
2022-08-05T02:13:04.771Z,44.73
2022-08-05T02:13:20.079Z,44.76
2022-08-05T02:13:36.499Z,44.75
2022-08-05T02:13:53.581Z,44.74
2022-08-05T02:14:12.431Z,44.77
2022-08-05T02:14:25.268Z,44.76
2022-08-05T02:14:39.490Z,44.76
2022-08-05T02:14:56.557Z,44.75
2022-08-05T02:15:12.473Z,44.75
2022-08-05T02:15:33.218Z,44.74
2022-08-05T02:15:43.460Z,44.77
2022-08-05T02:15:58.912Z,44.75
2022-08-05T02:16:16.449Z,44.75
2022-08-05T02:16:31.682Z,44.77
2022-08-05T02:16:52.865Z,44.75
2022-08-05T02:17:03.065Z,44.77
2022-08-05T02:18:28.706Z,44.77
2022-08-05T02:18:30.645Z,44.76
2022-08-05T02:18:32.146Z,44.77
2022-08-05T02:18:32.446Z,44.77
2022-08-05T02:18:32.992Z,44.76
2022-08-05T02:18:39.698Z,44.76
2022-08-05T02:18:54.917Z,44.77
2022-08-05T02:19:11.627Z,44.77
2022-08-05T02:19:27.396Z,44.77
2022-08-05T02:19:47.336Z,44.77
2022-08-05T02:20:00.175Z,44.78
2022-08-05T02:20:15.756Z,44.77
2022-08-05T02:20:31.451Z,44.78
2022-08-05T02:20:46.975Z,44.78
2022-08-05T02:21:03.464Z,44.78
2022-08-05T02:21:20.591Z,44.77
2022-08-05T02:21:42.967Z,44.77
2022-08-05T02:21:50.972Z,44.77
2022-08-05T02:22:08.045Z,44.77
2022-08-05T02:22:26.805Z,44.77
2022-08-05T02:22:39.781Z,44.78
2022-08-05T02:22:55.332Z,44.76
2022-08-05T02:23:12.228Z,44.77
2022-08-05T02:23:27.522Z,44.77
2022-08-05T02:23:43.881Z,44.8
2022-08-05T02:23:59.502Z,44.77
2022-08-05T02:24:17.945Z,44.78
2022-08-05T02:24:32.606Z,44.77
2022-08-05T02:24:46.818Z,44.78
2022-08-05T02:25:04.217Z,44.8
2022-08-05T02:25:19.701Z,44.79
2022-08-05T02:25:50.012Z,44.77
2022-08-05T02:25:51.523Z,44.79
2022-08-05T02:26:06.886Z,44.79
2022-08-05T02:26:26.493Z,44.8
2022-08-05T02:26:39.207Z,44.81
2022-08-05T02:26:55.645Z,44.8
2022-08-05T02:27:10.637Z,44.79
2022-08-05T02:27:29.943Z,44.79
2022-08-05T02:27:59.557Z,44.79
2022-08-05T02:28:01.230Z,44.79
2022-08-05T02:28:14.929Z,44.77
2022-08-05T02:28:35.251Z,44.78
2022-08-05T02:28:47.632Z,44.78
2022-08-05T02:29:02.469Z,44.79
2022-08-05T02:29:21.643Z,44.78
2022-08-05T02:29:58.442Z,44.79
2022-08-05T02:29:59.233Z,44.8
2022-08-05T02:30:09.403Z,44.79
2022-08-05T02:30:26.950Z,44.8
2022-08-05T02:30:54.349Z,44.8
2022-08-05T02:30:57.070Z,44.78
2022-08-05T02:31:14.810Z,44.79
2022-08-05T02:31:26.526Z,44.8
2022-08-05T02:31:43.019Z,44.78
2022-08-05T02:31:58.987Z,44.79
2022-08-05T02:32:23.907Z,44.81
2022-08-05T02:32:31.665Z,44.8
2022-08-05T02:32:48.775Z,44.8
2022-08-05T02:33:03.247Z,44.81
2022-08-05T02:33:24.603Z,44.81
2022-08-05T02:33:38.294Z,44.81
2022-08-05T02:33:57.177Z,44.81
2022-08-05T02:34:06.938Z,44.79
2022-08-05T02:34:23.135Z,44.79
2022-08-05T02:34:39.955Z,44.81
2022-08-05T02:34:55.269Z,44.8
2022-08-05T02:35:14.283Z,44.82
2022-08-05T02:35:27.958Z,44.8
2022-08-05T02:35:57.522Z,44.79
2022-08-05T02:36:01.333Z,44.83
2022-08-05T02:36:15.837Z,44.82
2022-08-05T02:36:33.065Z,44.8
2022-08-05T02:36:47.871Z,44.81
2022-08-05T02:37:04.487Z,44.82
2022-08-05T02:37:19.225Z,44.8
2022-08-05T02:37:35.526Z,44.8
2022-08-05T02:37:55.225Z,44.8
2022-08-05T02:38:09.531Z,44.8
2022-08-05T02:38:22.960Z,44.82
2022-08-05T02:38:39.968Z,44.84
2022-08-05T02:38:55.303Z,44.82
2022-08-05T02:39:12.003Z,44.82
2022-08-05T02:39:27.136Z,44.82
2022-08-05T02:39:43.318Z,44.82
2022-08-05T02:39:59.183Z,44.81
2022-08-05T02:40:17.122Z,44.81
2022-08-05T02:40:31.833Z,44.83
2022-08-05T02:40:48.233Z,44.83
2022-08-05T02:41:14.627Z,44.83
2022-08-05T02:41:19.110Z,44.83
2022-08-05T02:41:57.556Z,44.82
2022-08-05T02:42:00.688Z,44.82
2022-08-05T02:42:08.137Z,44.8
2022-08-05T02:42:27.375Z,44.83
2022-08-05T02:42:39.922Z,44.84
2022-08-05T02:42:55.782Z,44.83
2022-08-05T02:43:12.313Z,44.83
2022-08-05T02:43:27.195Z,44.84
2022-08-05T02:44:02.327Z,44.85
2022-08-05T02:44:06.771Z,44.83
2022-08-05T02:44:15.285Z,44.83
2022-08-05T02:44:32.238Z,44.81
2022-08-05T02:44:47.494Z,44.82
2022-08-05T02:45:02.467Z,44.81
2022-08-05T02:45:20.897Z,44.82
2022-08-05T02:45:52.108Z,44.83
2022-08-05T02:45:53.845Z,44.83
2022-08-05T02:46:08.740Z,44.83
2022-08-05T02:46:27.522Z,44.82
2022-08-05T02:46:53.463Z,44.81
2022-08-05T02:47:00.090Z,44.82
2022-08-05T02:47:10.997Z,44.84
2022-08-05T02:48:07.389Z,44.84
2022-08-05T02:48:11.426Z,44.84
2022-08-05T02:48:11.435Z,44.84
2022-08-05T02:48:15.945Z,44.84
2022-08-05T02:48:31.013Z,44.83
2022-08-05T02:48:47.578Z,44.83
2022-08-05T02:49:02.738Z,44.85
2022-08-05T02:49:20.092Z,44.85
2022-08-05T02:49:36.905Z,44.83
2022-08-05T02:49:51.937Z,44.83
2022-08-05T02:50:06.938Z,44.83
2022-08-05T02:50:23.170Z,44.84
2022-08-05T02:50:38.967Z,44.83
2022-08-05T02:50:54.696Z,44.83
2022-08-05T02:51:11.820Z,44.85
2022-08-05T02:52:02.647Z,44.83
2022-08-05T02:52:04.030Z,44.84
2022-08-05T02:52:04.489Z,44.83
2022-08-05T02:52:25.860Z,44.84
2022-08-05T02:52:31.480Z,44.84
2022-08-05T02:52:47.999Z,44.83
2022-08-05T02:53:03.546Z,44.84
2022-08-05T02:53:19.613Z,44.83
2022-08-05T02:53:39.438Z,44.85
2022-08-05T02:53:50.906Z,44.85
2022-08-05T02:54:07.646Z,44.84
2022-08-05T02:54:35.881Z,44.84
2022-08-05T02:54:41.375Z,44.85
2022-08-05T02:54:55.531Z,44.84
2022-08-05T02:55:12.289Z,44.84
2022-08-05T02:55:52.188Z,44.85
2022-08-05T02:55:53.723Z,44.85
2022-08-05T02:56:00.014Z,44.84
2022-08-05T02:56:16.034Z,44.84
2022-08-05T02:56:31.562Z,44.85
2022-08-05T02:56:48.030Z,44.87
2022-08-05T02:57:10.084Z,44.84
2022-08-05T02:58:09.833Z,44.87
2022-08-05T02:58:10.464Z,44.85
2022-08-05T02:58:10.466Z,44.85
2022-08-05T02:58:19.949Z,44.86
2022-08-05T02:58:23.657Z,44.84
2022-08-05T02:58:38.329Z,44.84
2022-08-05T02:58:55.846Z,44.86
2022-08-05T02:59:11.156Z,44.87
2022-08-05T02:59:27.781Z,44.85
2022-08-05T02:59:50.486Z,44.84
2022-08-05T02:59:59.535Z,44.86
2022-08-05T03:00:15.171Z,44.85
2022-08-05T03:00:31.550Z,44.86
2022-08-05T03:00:46.981Z,44.85
2022-08-05T03:01:03.663Z,44.86
2022-08-05T03:01:19.578Z,44.86
2022-08-05T03:01:34.330Z,44.87
2022-08-05T03:01:51.273Z,44.87
2022-08-05T03:02:07.163Z,44.85
2022-08-05T03:02:27.410Z,44.87
2022-08-05T03:02:42.916Z,44.85
2022-08-05T03:02:57.426Z,44.85
2022-08-05T03:03:10.842Z,44.87
2022-08-05T03:03:33.669Z,44.87
2022-08-05T03:04:02.023Z,44.86
2022-08-05T03:04:03.158Z,44.86
2022-08-05T03:04:15.765Z,44.86
2022-08-05T03:04:30.408Z,44.85
2022-08-05T03:04:47.906Z,44.87
2022-08-05T03:05:03.917Z,44.87
2022-08-05T03:05:21.817Z,44.85
2022-08-05T03:06:53.574Z,44.88
2022-08-05T03:06:54.001Z,44.87
2022-08-05T03:06:54.922Z,44.85
2022-08-05T03:06:55.445Z,44.87
2022-08-05T03:06:56.031Z,44.87
2022-08-05T03:06:59.045Z,44.86
2022-08-05T03:07:40.385Z,44.87
2022-08-05T03:08:00.583Z,44.88
2022-08-05T03:08:04.579Z,44.87
2022-08-05T03:08:04.602Z,44.88
2022-08-05T03:08:15.754Z,44.87
2022-08-05T03:08:31.401Z,44.86
2022-08-05T03:08:49.480Z,44.87
2022-08-05T03:09:03.449Z,44.87
2022-08-05T03:09:36.344Z,44.88
2022-08-05T03:09:38.455Z,44.87
2022-08-05T03:09:51.978Z,44.87
2022-08-05T03:10:07.477Z,44.86
2022-08-05T03:10:25.030Z,44.88
2022-08-05T03:10:39.564Z,44.87
2022-08-05T03:11:53.184Z,44.88
2022-08-05T03:11:53.385Z,44.87
2022-08-05T03:11:55.164Z,44.88
2022-08-05T03:11:56.441Z,44.89
2022-08-05T03:11:58.849Z,44.88
2022-08-05T03:12:14.727Z,44.87
2022-08-05T03:12:31.218Z,44.87
2022-08-05T03:12:46.819Z,44.88
2022-08-05T03:13:19.067Z,44.88
2022-08-05T03:13:51.719Z,44.87
2022-08-05T03:13:52.094Z,44.88
2022-08-05T03:14:08.310Z,44.89
2022-08-05T03:14:23.726Z,44.87
2022-08-05T03:14:46.014Z,44.9
2022-08-05T03:14:55.009Z,44.87
2022-08-05T03:15:12.441Z,44.87
2022-08-05T03:15:28.417Z,44.88
2022-08-05T03:15:43.167Z,44.89
2022-08-05T03:15:59.096Z,44.9
2022-08-05T03:16:15.764Z,44.87
2022-08-05T03:16:31.647Z,44.88
2022-08-05T03:16:46.861Z,44.9
2022-08-05T03:17:08.733Z,44.9
2022-08-05T03:17:20.133Z,44.87
2022-08-05T03:17:41.809Z,44.89
2022-08-05T03:17:53.888Z,44.88
2022-08-05T03:18:06.361Z,44.88
2022-08-05T03:18:29.861Z,44.88
2022-08-05T03:18:38.543Z,44.87
2022-08-05T03:18:55.141Z,44.87
2022-08-05T03:19:17.210Z,44.9
2022-08-05T03:19:29.491Z,44.89
2022-08-05T03:19:42.828Z,44.89
2022-08-05T03:20:00.335Z,44.9
2022-08-05T03:20:15.517Z,44.9
2022-08-05T03:20:30.318Z,44.9
2022-08-05T03:20:48.954Z,44.89
2022-08-05T03:21:02.835Z,44.89
2022-08-05T03:21:19.199Z,44.88
2022-08-05T03:21:41.548Z,44.88
2022-08-05T03:21:51.211Z,44.9
2022-08-05T03:22:16.587Z,44.88
2022-08-05T03:22:32.425Z,44.89
2022-08-05T03:22:46.808Z,44.9
2022-08-05T03:22:57.580Z,44.88
2022-08-05T03:23:11.587Z,44.89
2022-08-05T03:23:26.294Z,44.9
2022-08-05T03:23:43.317Z,44.91
2022-08-05T03:23:58.680Z,44.89
2022-08-05T03:24:16.025Z,44.9
2022-08-05T03:24:32.619Z,44.9
2022-08-05T03:24:50.936Z,44.9
2022-08-05T03:25:31.600Z,44.9
2022-08-05T03:25:33.078Z,44.9
2022-08-05T03:26:05.053Z,44.91
2022-08-05T03:26:05.095Z,44.9
2022-08-05T03:26:31.047Z,44.9
2022-08-05T03:26:31.844Z,44.89
2022-08-05T03:26:39.750Z,44.9
2022-08-05T03:26:55.289Z,44.91